createdAt,value
2023-12-09T00:00:24.601Z,101045.56
2023-12-09T00:02:51.139Z,101056.88
2023-12-09T00:05:17.652Z,101059.09
2023-12-09T00:07:44.409Z,101049.69
2023-12-09T00:10:11.046Z,101050.81
2023-12-09T00:12:37.642Z,101051.56
2023-12-09T00:15:05.591Z,101048.19
2023-12-09T00:17:32.449Z,101052.72
2023-12-09T00:20:00.369Z,101053.09
2023-12-09T00:22:27.274Z,101046.34
2023-12-09T00:24:53.931Z,101058.75
2023-12-09T00:27:20.453Z,101062.91
2023-12-09T00:29:47.010Z,101058.75
2023-12-09T00:32:13.646Z,101061.78
2023-12-09T00:34:40.209Z,101059.16
2023-12-09T00:37:06.675Z,101049.75
2023-12-09T00:39:33.159Z,101051.63
2023-12-09T00:41:59.768Z,101062.94
2023-12-09T00:44:26.385Z,101057.25
2023-12-09T00:46:52.907Z,101059.16
2023-12-09T00:49:19.512Z,101061.03
2023-12-09T00:51:45.995Z,101067.06
2023-12-09T00:54:12.635Z,101059.88
2023-12-09T00:56:39.154Z,101059.88
2023-12-09T00:59:06.484Z,101062.91
2023-12-09T01:01:35.037Z,101064.78
2023-12-09T01:04:02.777Z,101054.25
2023-12-09T01:06:30.331Z,101059.16
2023-12-09T01:08:57.063Z,101055.75
2023-12-09T01:11:24.978Z,101050.47
2023-12-09T01:13:51.602Z,101049.72
2023-12-09T01:16:18.050Z,101044.44
2023-12-09T01:18:44.620Z,101051.59
2023-12-09T01:21:11.177Z,101054.63
2023-12-09T01:23:39.141Z,101063.28
2023-12-09T01:26:05.706Z,101054.25
2023-12-09T01:28:32.236Z,101052.72
2023-12-09T01:30:58.701Z,101060.25
2023-12-09T01:33:25.336Z,101054.25
2023-12-09T01:35:51.899Z,101059.50
2023-12-09T01:38:18.471Z,101050.84
2023-12-09T01:40:44.945Z,101050.47
2023-12-09T01:43:11.801Z,101046.72
2023-12-09T01:45:38.355Z,101047.47
2023-12-09T01:48:05.745Z,101046.72
2023-12-09T01:50:32.550Z,101044.06
2023-12-09T01:52:59.288Z,101035.41
2023-12-09T01:55:26.063Z,101033.53
2023-12-09T01:57:53.753Z,101033.91
2023-12-09T02:00:22.269Z,101034.28
2023-12-09T02:02:49.356Z,101026.38
2023-12-09T02:05:16.148Z,101019.94
2023-12-09T02:07:42.749Z,101018.06
2023-12-09T02:10:10.357Z,101004.56
2023-12-09T02:12:44.065Z,101011.31
2023-12-09T02:15:13.373Z,101004.56
2023-12-09T02:18:00.344Z,101006.78
2023-12-09T02:20:27.665Z,101003.41
2023-12-09T02:23:10.015Z,100997.00
2023-12-09T02:25:37.610Z,100997.41
2023-12-09T02:28:10.873Z,100997.41
2023-12-09T02:30:58.062Z,101001.13
2023-12-09T02:33:26.090Z,101000.00
2023-12-09T02:35:54.950Z,100997.00
2023-12-09T02:38:22.569Z,100997.75
2023-12-09T02:40:50.457Z,100997.00
2023-12-09T02:43:17.995Z,100996.59
2023-12-09T02:45:47.640Z,100996.22
2023-12-09T02:48:14.420Z,100990.97
2023-12-09T02:50:41.509Z,100979.28
2023-12-09T02:53:08.100Z,100970.63
2023-12-09T02:55:34.663Z,100960.09
2023-12-09T02:58:01.194Z,100965.34
2023-12-09T03:00:27.762Z,100965.00
2023-12-09T03:02:54.386Z,100964.22
2023-12-09T03:05:21.065Z,100956.31
2023-12-09T03:07:47.576Z,100957.03
2023-12-09T03:10:14.081Z,100956.31
2023-12-09T03:12:40.863Z,100958.97
2023-12-09T03:15:08.047Z,100945.78
2023-12-09T03:17:36.164Z,100941.22
2023-12-09T03:20:04.145Z,100946.50
2023-12-09T03:22:30.907Z,100951.06
2023-12-09T03:24:57.399Z,100952.94
2023-12-09T03:27:23.910Z,100949.53
2023-12-09T03:29:50.441Z,100949.53
2023-12-09T03:32:16.925Z,100948.03
2023-12-09T03:34:46.243Z,100948.03
2023-12-09T03:37:12.753Z,100942.78
2023-12-09T03:39:39.374Z,100946.91
2023-12-09T03:42:06.500Z,100947.25
2023-12-09T03:44:33.003Z,100930.69
2023-12-09T03:46:59.475Z,100941.97
2023-12-09T03:49:25.997Z,100948.00
2023-12-09T03:51:52.502Z,100947.25
2023-12-09T03:54:19.075Z,100949.88
2023-12-09T03:56:46.016Z,100941.97
2023-12-09T03:59:12.884Z,100939.34
2023-12-09T04:01:47.904Z,100933.31
2023-12-09T04:04:14.462Z,100927.69
2023-12-09T04:06:41.145Z,100924.69
2023-12-09T04:09:07.727Z,100926.94
2023-12-09T04:11:34.591Z,100933.69
2023-12-09T04:14:01.066Z,100921.66
2023-12-09T04:16:27.584Z,100909.22
2023-12-09T04:18:54.222Z,100905.09
2023-12-09T04:21:21.460Z,100902.44
2023-12-09T04:23:48.523Z,100891.16
2023-12-09T04:26:15.025Z,100903.16
2023-12-09T04:28:41.499Z,100904.31
2023-12-09T04:31:08.020Z,100899.06
2023-12-09T04:33:34.601Z,100904.69
2023-12-09T04:36:01.227Z,100899.06
2023-12-09T04:38:28.095Z,100893.03
2023-12-09T04:40:54.788Z,100897.16
2023-12-09T04:43:21.262Z,100899.06
2023-12-09T04:45:47.874Z,100897.16
2023-12-09T04:48:14.453Z,100891.91
2023-12-09T04:50:41.043Z,100892.63
2023-12-09T04:53:08.059Z,100895.25
2023-12-09T04:55:34.589Z,100884.72
2023-12-09T04:58:01.214Z,100876.81
2023-12-09T05:00:28.167Z,100875.34
2023-12-09T05:02:54.762Z,100874.94
2023-12-09T05:05:21.316Z,100869.31
2023-12-09T05:07:47.771Z,100865.16
2023-12-09T05:10:14.244Z,100861.00
2023-12-09T05:12:41.377Z,100863.63
2023-12-09T05:15:08.366Z,100863.63
2023-12-09T05:17:34.893Z,100864.03
2023-12-09T05:20:01.424Z,100854.25
2023-12-09T05:22:28.161Z,100856.13
2023-12-09T05:24:54.757Z,100860.25
2023-12-09T05:27:21.281Z,100857.63
2023-12-09T05:29:47.767Z,100867.03
2023-12-09T05:32:14.232Z,100858.38
2023-12-09T05:34:40.875Z,100848.59
2023-12-09T05:37:07.404Z,100844.78
2023-12-09T05:39:34.001Z,100840.28
2023-12-09T05:42:00.642Z,100839.13
2023-12-09T05:44:27.224Z,100831.59
2023-12-09T05:46:53.675Z,100849.28
2023-12-09T05:49:20.786Z,100843.28
2023-12-09T05:51:47.391Z,100842.53
2023-12-09T05:54:13.886Z,100841.38
2023-12-09T05:56:47.450Z,100827.03
2023-12-09T05:59:14.398Z,100829.69
2023-12-09T06:01:40.995Z,100825.16
2023-12-09T06:04:07.563Z,100821.03
2023-12-09T06:06:34.158Z,100818.75
2023-12-09T06:09:00.778Z,100814.25
2023-12-09T06:11:27.405Z,100811.59
2023-12-09T06:13:53.932Z,100808.97
2023-12-09T06:16:20.647Z,100812.34
2023-12-09T06:18:47.834Z,100807.84
2023-12-09T06:21:24.635Z,100801.81
2023-12-09T06:23:52.070Z,100801.06
2023-12-09T06:26:19.366Z,100795.78
2023-12-09T06:28:46.310Z,100788.25
2023-12-09T06:31:12.876Z,100792.41
2023-12-09T06:33:39.981Z,100779.97
2023-12-09T06:36:07.238Z,100776.22
2023-12-09T06:38:38.688Z,100785.63
2023-12-09T06:41:05.353Z,100776.22
2023-12-09T06:43:31.845Z,100763.06
2023-12-09T06:46:00.988Z,100758.88
2023-12-09T06:48:27.843Z,100743.78
2023-12-09T06:50:54.901Z,100740.03
2023-12-09T06:53:21.484Z,100730.94
2023-12-09T06:55:47.991Z,100732.41
2023-12-09T06:58:14.498Z,100728.50
2023-12-09T07:00:41.203Z,100720.56
2023-12-09T07:03:08.738Z,100721.50
2023-12-09T07:05:35.401Z,100709.63
2023-12-09T07:08:01.915Z,100702.41
